| time (UTC) | temp F | wind direction | speed MPH | gust MPH | rain 1hr in | rain 24hr in | rain mn in | humidity % | barometer mb |
| 20260507112729 | 45 | 144 | 10.0 | 11.0 | 0.00 | 0.00 | 0.00 | 58 | 1017.1 |
| 20260507110729 | 46 | 141 | 8.0 | 9.0 | 0.00 | 0.00 | 0.00 | 55 | 1017.2 |
| 20260507104729 | 46 | 138 | 7.0 | 8.0 | 0.00 | 0.00 | 0.00 | 57 | 1017.0 |
| 20260507102729 | 46 | 145 | 8.0 | 9.0 | 0.00 | 0.00 | 0.00 | 57 | 1016.9 |
| 20260507100729 | 45 | 151 | 9.0 | 10.0 | 0.00 | 0.00 | 0.00 | 59 | 1016.7 |
| 20260507094729 | 44 | 156 | 8.0 | 9.0 | 0.00 | 0.00 | 0.00 | 65 | 1016.6 |
| 20260507092729 | 44 | 156 | 8.0 | 9.0 | 0.00 | 0.00 | 0.00 | 73 | 1016.6 |
| 20260507090730 | 44 | 157 | 8.0 | 9.0 | 0.00 | 0.00 | 0.00 | 76 | 1016.5 |
| 20260507084729 | 43 | 158 | 9.0 | 10.0 | 0.00 | 0.00 | 0.00 | 74 | 1016.4 |
| 20260507082729 | 43 | 166 | 9.0 | 10.0 | 0.00 | 0.00 | 0.00 | 73 | 1016.3 |
| 20260507080729 | 43 | 161 | 11.0 | 12.0 | 0.00 | 0.00 | 0.00 | 77 | 1016.2 |
| 20260507074729 | 43 | 160 | 10.0 | 12.0 | 0.00 | 0.00 | 0.00 | 78 | 1016.3 |
| 20260507072729 | 43 | 166 | 10.0 | 11.0 | 0.00 | 0.00 | 0.00 | 80 | 1016.2 |
| 20260507070728 | 42 | 163 | 9.0 | 10.0 | 0.00 | 0.00 | 0.00 | 82 | 1016.1 |
| 20260507064729 | 42 | 169 | 9.0 | 11.0 | 0.00 | 0.00 | 0.00 | 82 | 1016.0 |
| 20260507062728 | 42 | 163 | 11.0 | 13.0 | 0.00 | 0.00 | 0.00 | 82 | 1015.9 |
| 20260507060728 | 42 | 162 | 11.0 | 13.0 | 0.00 | 0.00 | 0.00 | 80 | 1015.8 |
| 20260507054729 | 42 | 164 | 11.0 | 12.0 | 0.00 | 0.00 | 0.00 | 78 | 1015.6 |
| 20260507052728 | 42 | 160 | 11.0 | 13.0 | 0.00 | 0.00 | 0.00 | 81 | 1015.4 |
| 20260507045052 | 42 | 158 | 11.0 | 12.0 | 0.00 | 0.00 | 0.00 | 81 | 1015.4 |
| 20260507042728 | 41 | 150 | 11.0 | 13.0 | 0.00 | 0.00 | 0.00 | 75 | 1015.3 |
| 20260507040730 | 41 | 221 | 5.0 | 6.0 | 0.00 | 0.00 | 0.00 | 71 | 1015.3 |
| 20260507034729 | 41 | 223 | 6.0 | 7.0 | 0.00 | 0.00 | 0.00 | 67 | 1015.1 |
| 20260507032729 | 41 | 214 | 6.0 | 7.0 | 0.00 | 0.00 | 0.00 | 68 | 1015.0 |
| 20260507030730 | 41 | 201 | 5.0 | 6.0 | 0.00 | 0.00 | 0.00 | 71 | 1015.0 |
| 20260507024728 | 41 | 218 | 6.0 | 7.0 | 0.00 | 0.00 | 0.00 | 74 | 1015.1 |
| 20260507022729 | 41 | 215 | 7.0 | 8.0 | 0.00 | 0.00 | 0.00 | 73 | 1015.1 |
| 20260507020728 | 41 | 226 | 8.0 | 9.0 | 0.00 | 0.00 | 0.00 | 67 | 1015.0 |
| 20260507014728 | 41 | 226 | 8.0 | 9.0 | 0.00 | 0.00 | 0.00 | 75 | 1015.1 |
| 20260507012728 | 41 | 199 | 10.0 | 12.0 | 0.00 | 0.00 | 0.00 | 73 | 1014.7 |
| 20260507010728 | 41 | 210 | 10.0 | 11.0 | 0.00 | 0.00 | 0.00 | 76 | 1014.8 |
| 20260507004728 | 41 | 187 | 11.0 | 13.0 | 0.00 | 0.00 | 0.00 | 75 | 1014.6 |
| 20260507002728 | 42 | 192 | 11.0 | 12.0 | 0.00 | 0.00 | 0.00 | 74 | 1014.5 |
| 20260507000728 | 42 | 192 | 10.0 | 12.0 | 0.00 | 0.00 | 0.00 | 75 | 1014.5 |
| 20260506234729 | 42 | 191 | 11.0 | 13.0 | 0.00 | 0.00 | 0.00 | 76 | 1014.4 |
| 20260506232728 | 42 | 188 | 11.0 | 12.0 | 0.00 | 0.00 | 0.00 | 77 | 1014.4 |
| 20260506230729 | 41 | 183 | 10.0 | 11.0 | 0.00 | 0.00 | 0.00 | 79 | 1014.4 |
| 20260506224727 | 42 | 185 | 11.0 | 12.0 | 0.00 | 0.00 | 0.00 | 79 | 1014.4 |
| 20260506222728 | 41 | 175 | 12.0 | 13.0 | 0.00 | 0.00 | 0.00 | 78 | 1014.2 |
| 20260506220728 | 42 | 176 | 14.0 | 16.0 | 0.00 | 0.00 | 0.00 | 72 | 1013.9 |
| 20260506214727 | 42 | 177 | 14.0 | 15.0 | 0.00 | 0.00 | 0.00 | 72 | 1014.0 |
| 20260506212728 | 42 | 176 | 15.0 | 16.0 | 0.00 | 0.00 | 0.00 | 71 | 1013.9 |
| 20260506211050 | 42 | 176 | 15.0 | 17.0 | 0.00 | 0.00 | 0.00 | 73 | 1013.9 |
| 20260506204727 | 42 | 171 | 15.0 | 17.0 | 0.00 | 0.00 | 0.00 | 78 | 1014.0 |
| 20260506202727 | 42 | 174 | 16.0 | 17.0 | 0.00 | 0.00 | 0.00 | 75 | 1014.1 |
| 20260506200727 | 42 | 175 | 15.0 | 17.0 | 0.00 | 0.00 | 0.00 | 75 | 1014.1 |
| 20260506194727 | 42 | 175 | 17.0 | 19.0 | 0.00 | 0.00 | 0.00 | 76 | 1014.0 |
| 20260506192727 | 42 | 169 | 17.0 | 19.0 | 0.00 | 0.00 | 0.00 | 74 | 1014.0 |
| 20260506190727 | 42 | 165 | 17.0 | 19.0 | 0.00 | 0.00 | 0.00 | 74 | 1014.0 |
| 20260506184726 | 42 | 165 | 16.0 | 18.0 | 0.00 | 0.00 | 0.00 | 78 | 1014.0 |
| 20260506182727 | 43 | 162 | 16.0 | 18.0 | 0.00 | 0.00 | 0.00 | 78 | 1014.0 |
| 20260506180727 | 43 | 161 | 16.0 | 18.0 | 0.00 | 0.00 | 0.00 | 78 | 1014.0 |
| 20260506174727 | 43 | 159 | 16.0 | 18.0 | 0.00 | 0.00 | 0.00 | 75 | 1013.9 |
| 20260506172726 | 44 | 159 | 16.0 | 18.0 | 0.00 | 0.00 | 0.00 | 73 | 1013.8 |
| 20260506170726 | 44 | 158 | 14.0 | 16.0 | 0.00 | 0.00 | 0.00 | 72 | 1013.9 |
| 20260506164726 | 44 | 151 | 13.0 | 15.0 | 0.00 | 0.00 | 0.00 | 73 | 1013.9 |
| 20260506162727 | 44 | 152 | 12.0 | 14.0 | 0.00 | 0.00 | 0.00 | 71 | 1014.0 |
| 20260506160726 | 44 | 162 | 12.0 | 14.0 | 0.00 | 0.00 | 0.00 | 65 | 1014.0 |
| 20260506154726 | 45 | 162 | 11.0 | 13.0 | 0.00 | 0.00 | 0.00 | 66 | 1013.9 |
| 20260506152727 | 45 | 159 | 10.0 | 11.0 | 0.00 | 0.00 | 0.00 | 64 | 1014.0 |
| 20260506150725 | 45 | 157 | 11.0 | 12.0 | 0.00 | 0.00 | 0.00 | 67 | 1014.1 |
| 20260506144725 | 45 | 158 | 10.0 | 13.0 | 0.00 | 0.00 | 0.00 | 65 | 1014.3 |
| 20260506142726 | 45 | 161 | 9.0 | 11.0 | 0.00 | 0.00 | 0.00 | 65 | 1014.4 |
| 20260506140725 | 45 | 158 | 10.0 | 11.0 | 0.00 | 0.00 | 0.00 | 69 | 1014.4 |
| 20260506134726 | 45 | 159 | 11.0 | 12.0 | 0.00 | 0.00 | 0.00 | 68 | 1014.5 |
| 20260506132725 | 45 | 157 | 11.0 | 13.0 | 0.00 | 0.00 | 0.00 | 68 | 1014.5 |
| 20260506130725 | 45 | 151 | 10.0 | 12.0 | 0.00 | 0.00 | 0.00 | 64 | 1014.6 |
| 20260506124725 | 46 | 135 | 9.0 | 10.0 | 0.00 | 0.00 | 0.00 | 66 | 1014.6 |
| 20260506122725 | 45 | 120 | 9.0 | 10.0 | 0.00 | 0.00 | 0.00 | 69 | 1014.6 |
| 20260506120725 | 45 | 105 | 9.0 | 10.0 | 0.00 | 0.00 | 0.00 | 68 | 1014.6 |
| 20260506114725 | 45 | 102 | 9.0 | 10.0 | 0.00 | 0.00 | 0.00 | 70 | 1014.6 |